createdAt,value
2022-12-19T00:01:18.737Z,29.23
2022-12-19T00:04:35.598Z,28.27
2022-12-19T00:07:59.702Z,27.85
2022-12-19T00:11:19.727Z,29.52
2022-12-19T00:14:41.609Z,28.65
2022-12-19T00:18:04.755Z,28.70
2022-12-19T00:21:28.630Z,27.20
2022-12-19T00:24:49.687Z,28.52
2022-12-19T00:28:12.614Z,28.33
2022-12-19T00:31:23.830Z,29.55
2022-12-19T00:34:46.610Z,27.50
2022-12-19T00:38:14.564Z,27.63
2022-12-19T00:41:41.734Z,28.00
2022-12-19T00:44:55.700Z,28.10
2022-12-19T00:48:21.539Z,28.38
2022-12-19T00:51:40.803Z,27.23
2022-12-19T00:55:02.902Z,28.27
2022-12-19T00:58:19.740Z,27.67
2022-12-19T01:01:30.873Z,28.88
2022-12-19T01:04:39.858Z,28.08
2022-12-19T01:07:52.641Z,27.37
2022-12-19T01:11:12.271Z,26.30
2022-12-19T01:14:28.553Z,27.80
2022-12-19T01:17:49.471Z,27.35
2022-12-19T01:21:01.127Z,43.55
2022-12-19T01:24:10.512Z,27.40
2022-12-19T01:27:20.812Z,26.43
2022-12-19T01:30:24.733Z,26.77
2022-12-19T01:33:43.075Z,27.13
2022-12-19T01:36:48.914Z,27.38
2022-12-19T01:39:52.596Z,27.00
2022-12-19T01:43:15.678Z,28.47
2022-12-19T01:46:40.437Z,28.38
2022-12-19T01:49:45.431Z,28.08
2022-12-19T01:52:53.092Z,26.17
2022-12-19T01:56:20.849Z,27.43
2022-12-19T01:59:43.569Z,26.47
2022-12-19T02:02:58.027Z,27.40
2022-12-19T02:06:08.999Z,25.55
2022-12-19T02:09:28.636Z,27.20
2022-12-19T02:12:48.520Z,30.07
2022-12-19T02:16:34.318Z,29.93
2022-12-19T02:20:13.592Z,28.52
2022-12-19T02:24:00.602Z,27.60
2022-12-19T02:27:54.673Z,25.83
2022-12-19T02:31:34.282Z,26.17
2022-12-19T02:35:18.258Z,25.60
2022-12-19T02:38:50.230Z,25.90
2022-12-19T02:42:20.503Z,26.55
2022-12-19T02:45:42.742Z,25.02
2022-12-19T02:48:59.440Z,25.67
2022-12-19T02:52:26.494Z,26.13
2022-12-19T02:55:57.586Z,25.90
2022-12-19T02:59:21.684Z,25.48
2022-12-19T03:02:49.302Z,25.65
2022-12-19T03:06:18.933Z,24.87
2022-12-19T03:09:46.831Z,24.97
2022-12-19T03:13:34.240Z,23.98
2022-12-19T03:16:52.479Z,24.48
2022-12-19T03:20:15.957Z,25.52
2022-12-19T03:23:37.911Z,25.23
2022-12-19T03:27:03.383Z,24.87
2022-12-19T03:30:20.949Z,24.73
2022-12-19T03:33:42.128Z,24.27
2022-12-19T03:37:10.108Z,25.02
2022-12-19T03:40:28.062Z,24.10
2022-12-19T03:43:50.984Z,23.97
2022-12-19T03:47:17.308Z,23.35
2022-12-19T03:50:42.461Z,24.27
2022-12-19T03:54:14.230Z,23.92
2022-12-19T03:57:54.609Z,23.90
2022-12-19T04:00:58.666Z,23.67
2022-12-19T04:04:07.897Z,24.75
2022-12-19T04:07:28.185Z,24.48
2022-12-19T04:10:58.165Z,22.10
2022-12-19T04:14:20.173Z,23.73
2022-12-19T04:18:01.260Z,25.97
2022-12-19T04:21:14.382Z,24.83
2022-12-19T04:24:32.744Z,25.35
2022-12-19T04:27:55.583Z,24.17
2022-12-19T04:30:59.321Z,22.97
2022-12-19T04:34:23.116Z,24.23
2022-12-19T04:37:50.102Z,24.50
2022-12-19T04:40:53.187Z,24.85
2022-12-19T04:43:56.145Z,24.45
2022-12-19T04:47:09.648Z,24.50
2022-12-19T04:50:29.515Z,25.00
2022-12-19T04:53:42.426Z,26.90
2022-12-19T04:56:53.388Z,27.27
2022-12-19T04:59:58.497Z,26.30
2022-12-19T05:03:05.650Z,24.20
2022-12-19T05:06:23.141Z,26.73
2022-12-19T05:09:46.035Z,26.02
2022-12-19T05:13:03.773Z,27.00
2022-12-19T05:16:15.169Z,26.25
2022-12-19T05:19:22.148Z,25.17
2022-12-19T05:22:35.875Z,26.03
2022-12-19T05:26:23.267Z,26.70
2022-12-19T05:29:27.088Z,24.70
2022-12-19T05:32:38.525Z,25.70
2022-12-19T05:35:59.658Z,26.53
2022-12-19T05:39:20.452Z,26.20
2022-12-19T05:42:36.907Z,26.88
2022-12-19T05:45:57.726Z,27.50
2022-12-19T05:49:18.421Z,25.38
2022-12-19T05:52:42.743Z,27.20
2022-12-19T05:56:15.732Z,25.27
2022-12-19T05:59:35.602Z,26.30
2022-12-19T06:02:58.774Z,25.05
2022-12-19T06:06:26.270Z,25.58
2022-12-19T06:09:43.163Z,27.73
2022-12-19T06:12:53.531Z,28.13
2022-12-19T06:15:59.925Z,26.23
2022-12-19T06:19:22.697Z,27.35
2022-12-19T06:22:39.625Z,27.08
2022-12-19T06:25:49.359Z,27.00
2022-12-19T06:29:14.603Z,26.40
2022-12-19T06:32:38.385Z,26.13
2022-12-19T06:35:57.467Z,26.25
2022-12-19T06:39:20.300Z,27.13
2022-12-19T06:42:36.949Z,28.77
2022-12-19T06:45:54.750Z,38.93
2022-12-19T06:49:40.990Z,29.98
2022-12-19T06:53:15.410Z,31.33
2022-12-19T06:56:20.378Z,27.13
2022-12-19T06:59:26.932Z,28.50
2022-12-19T07:02:42.712Z,23.40
2022-12-19T07:06:04.750Z,24.48
2022-12-19T07:09:40.573Z,25.05
2022-12-19T07:12:54.589Z,23.95
2022-12-19T07:16:14.581Z,23.93
2022-12-19T07:19:26.293Z,23.07
2022-12-19T07:22:35.100Z,23.75
2022-12-19T07:25:42.363Z,23.15
2022-12-19T07:28:49.384Z,22.38
2022-12-19T07:32:03.748Z,22.07
2022-12-19T07:35:10.324Z,17.67
2022-12-19T07:38:14.937Z,21.15
2022-12-19T07:41:37.468Z,20.77
2022-12-19T07:45:43.854Z,27.27
2022-12-19T07:49:01.078Z,16.57
2022-12-19T07:52:16.038Z,18.80
2022-12-19T07:55:25.779Z,22.60
2022-12-19T07:58:31.891Z,15.43
2022-12-19T08:01:52.420Z,12.60
2022-12-19T08:05:02.474Z,16.03
2022-12-19T08:08:05.851Z,14.30
2022-12-19T08:11:14.595Z,13.93
2022-12-19T08:14:30.761Z,15.73
2022-12-19T08:17:38.941Z,13.90
2022-12-19T08:20:48.668Z,11.97
2022-12-19T08:23:56.050Z,12.17
2022-12-19T08:27:09.611Z,10.88
2022-12-19T08:30:32.245Z,12.85
2022-12-19T08:33:45.165Z,13.18
2022-12-19T08:37:09.302Z,12.93
2022-12-19T08:40:31.477Z,15.07
2022-12-19T08:44:57.074Z,13.50
2022-12-19T08:48:33.115Z,16.88
2022-12-19T08:51:48.553Z,22.67
2022-12-19T08:54:56.300Z,23.03
2022-12-19T08:58:13.382Z,19.33
2022-12-19T09:01:29.215Z,20.42
2022-12-19T09:14:21.039Z,13.90
2022-12-19T09:17:37.448Z,12.93
2022-12-19T09:20:58.764Z,12.45
2022-12-19T09:24:21.218Z,12.15
2022-12-19T09:28:01.223Z,12.13
2022-12-19T09:31:10.641Z,13.03
2022-12-19T09:34:17.677Z,11.63
2022-12-19T09:37:21.397Z,12.82
2022-12-19T09:40:29.865Z,12.40
2022-12-19T09:44:01.203Z,13.77
2022-12-19T09:47:23.967Z,16.33
2022-12-19T09:50:44.148Z,17.77
2022-12-19T09:54:13.316Z,19.15
2022-12-19T09:57:37.281Z,14.48
2022-12-19T10:01:03.279Z,12.93
2022-12-19T10:04:13.506Z,13.97
2022-12-19T10:07:48.454Z,13.23
2022-12-19T10:12:42.573Z,13.45
2022-12-19T10:14:56.187Z,13.63
2022-12-19T10:18:32.597Z,13.10
2022-12-19T10:22:39.025Z,13.97
2022-12-19T10:26:15.311Z,14.93
2022-12-19T10:29:38.252Z,12.90
2022-12-19T10:33:20.323Z,13.75
2022-12-19T10:36:48.717Z,13.52
2022-12-19T10:40:27.728Z,13.53
2022-12-19T10:44:35.536Z,36.60
2022-12-19T10:48:15.357Z,16.10
2022-12-19T10:51:28.229Z,14.77
2022-12-19T10:54:41.960Z,14.00
2022-12-19T10:58:01.931Z,14.43
2022-12-19T11:01:29.218Z,13.20
2022-12-19T11:04:50.889Z,15.40
2022-12-19T11:08:14.614Z,14.85
2022-12-19T11:13:09.552Z,13.05
2022-12-19T11:17:24.239Z,14.27
2022-12-19T11:29:17.074Z,14.50
2022-12-19T11:29:34.556Z,13.00
2022-12-19T11:30:26.152Z,13.15
2022-12-19T11:33:18.667Z,14.40
2022-12-19T11:36:39.884Z,14.73
2022-12-19T11:40:10.924Z,14.93
2022-12-19T11:43:45.475Z,25.95
2022-12-19T11:47:32.822Z,13.68
2022-12-19T11:50:50.304Z,13.33
2022-12-19T11:54:31.038Z,13.37
2022-12-19T11:57:39.475Z,14.32
2022-12-19T12:01:02.287Z,13.80
2022-12-19T12:04:31.553Z,14.02
2022-12-19T12:08:52.176Z,13.27
2022-12-19T12:19:33.832Z,13.50
2022-12-19T12:26:38.723Z,13.45
2022-12-19T12:31:08.956Z,14.55
2022-12-19T12:31:43.764Z,13.37
2022-12-19T12:31:55.173Z,14.20
2022-12-19T12:32:04.540Z,12.80
2022-12-19T12:35:45.383Z,13.35
2022-12-19T12:39:10.947Z,13.48
2022-12-19T12:42:56.571Z,13.75
2022-12-19T12:46:45.786Z,12.77
2022-12-19T12:50:17.528Z,13.23
2022-12-19T12:53:35.793Z,12.20
2022-12-19T12:56:55.939Z,13.32
2022-12-19T13:00:30.682Z,13.35
2022-12-19T13:03:46.733Z,14.40
2022-12-19T13:07:08.690Z,12.73
2022-12-19T13:10:31.361Z,13.43
2022-12-19T13:13:58.683Z,13.07
2022-12-19T13:17:06.966Z,13.20
2022-12-19T13:20:32.447Z,12.97
2022-12-19T13:23:47.812Z,12.83
2022-12-19T13:27:07.479Z,13.45
2022-12-19T13:30:29.455Z,13.32
2022-12-19T13:33:56.189Z,14.35
2022-12-19T13:39:48.931Z,12.63
2022-12-19T13:41:01.535Z,14.60
2022-12-19T13:44:09.243Z,14.90
2022-12-19T13:47:23.467Z,14.98
2022-12-19T13:50:44.523Z,14.00
2022-12-19T13:54:00.072Z,14.53
2022-12-19T13:57:09.550Z,13.73
2022-12-19T14:00:18.579Z,14.32
2022-12-19T14:03:32.930Z,13.50
2022-12-19T14:06:53.334Z,14.15
2022-12-19T14:11:33.219Z,22.80
2022-12-19T14:14:23.856Z,14.33
2022-12-19T14:17:34.460Z,16.55
2022-12-19T14:22:04.926Z,15.57
2022-12-19T14:24:17.835Z,14.25
2022-12-19T14:28:19.305Z,14.37
2022-12-19T14:30:59.566Z,15.63
2022-12-19T14:34:47.289Z,15.15
2022-12-19T14:39:19.451Z,15.52
2022-12-19T14:41:09.229Z,15.93
2022-12-19T14:51:42.930Z,16.27
2022-12-19T14:54:00.624Z,14.87
2022-12-19T14:54:40.844Z,15.95
2022-12-19T14:56:16.534Z,14.82
2022-12-19T14:58:53.529Z,16.15
2022-12-19T15:02:32.451Z,15.10
2022-12-19T15:05:56.195Z,16.17
2022-12-19T15:10:58.805Z,21.55
2022-12-19T15:14:54.393Z,18.40
2022-12-19T15:16:46.598Z,16.17
2022-12-19T15:19:55.661Z,16.23
2022-12-19T15:23:05.243Z,15.73
2022-12-19T15:26:19.999Z,16.88
2022-12-19T15:29:26.993Z,16.98
2022-12-19T15:32:47.133Z,17.00
2022-12-19T15:36:07.069Z,17.20
2022-12-19T15:39:24.929Z,18.00
2022-12-19T15:42:32.437Z,17.23
2022-12-19T15:45:39.295Z,21.80
2022-12-19T15:48:45.796Z,17.98
2022-12-19T15:51:50.923Z,17.03
2022-12-19T15:55:04.420Z,18.37
2022-12-19T15:58:12.363Z,17.52
2022-12-19T16:01:25.423Z,18.10
2022-12-19T16:04:31.658Z,17.52
2022-12-19T16:07:35.274Z,20.17
2022-12-19T16:10:40.733Z,18.60
2022-12-19T16:14:00.969Z,18.98
2022-12-19T16:17:37.887Z,18.73
2022-12-19T16:20:54.075Z,18.63
2022-12-19T16:24:07.683Z,18.47
2022-12-19T16:27:37.963Z,17.57
2022-12-19T16:31:05.962Z,17.38
2022-12-19T16:34:17.710Z,18.02
2022-12-19T16:37:40.892Z,18.02
2022-12-19T16:40:58.643Z,17.67
2022-12-19T16:44:24.980Z,17.73
2022-12-19T16:47:58.968Z,17.58
2022-12-19T16:51:19.072Z,15.77
2022-12-19T16:54:41.987Z,17.55
2022-12-19T16:58:07.828Z,18.10
2022-12-19T17:01:28.996Z,17.67
2022-12-19T17:04:31.967Z,17.08
2022-12-19T17:07:54.842Z,17.23
2022-12-19T17:11:34.852Z,17.95
2022-12-19T17:14:58.938Z,17.33
2022-12-19T17:18:20.919Z,16.43
2022-12-19T17:21:23.933Z,16.92
2022-12-19T17:24:30.861Z,15.57
2022-12-19T17:27:33.690Z,17.55
2022-12-19T17:30:54.966Z,17.53
2022-12-19T17:34:14.501Z,17.43
2022-12-19T17:37:37.861Z,16.80
2022-12-19T17:40:56.944Z,16.15
2022-12-19T17:44:24.968Z,16.27
2022-12-19T17:47:54.166Z,15.97
2022-12-19T17:51:14.503Z,16.17
2022-12-19T17:54:25.341Z,15.48
2022-12-19T17:57:47.715Z,16.52
2022-12-19T18:01:24.739Z,15.45
2022-12-19T18:04:28.496Z,15.60
2022-12-19T18:07:51.766Z,17.43
2022-12-19T18:11:30.375Z,16.50
2022-12-19T18:14:51.443Z,16.77
2022-12-19T18:18:07.619Z,16.00
2022-12-19T18:21:24.541Z,16.10
2022-12-19T18:24:34.273Z,16.83
2022-12-19T18:27:44.131Z,16.65
2022-12-19T18:31:00.323Z,17.83
2022-12-19T18:34:20.043Z,16.60
2022-12-19T18:37:35.893Z,16.13
2022-12-19T18:40:52.918Z,16.73
2022-12-19T18:43:58.966Z,16.70
2022-12-19T18:47:05.244Z,17.50
2022-12-19T18:50:24.572Z,17.15
2022-12-19T18:53:38.703Z,15.23
2022-12-19T18:56:48.325Z,16.43
2022-12-19T19:00:04.580Z,15.25
2022-12-19T19:03:38.641Z,16.45
2022-12-19T19:07:06.639Z,17.30
2022-12-19T19:10:30.507Z,15.70
2022-12-19T19:13:55.699Z,17.27
2022-12-19T19:17:16.702Z,18.90
2022-12-19T19:20:36.312Z,17.63
2022-12-19T19:23:59.521Z,17.85
2022-12-19T19:27:19.460Z,17.20
2022-12-19T19:30:40.614Z,16.43
2022-12-19T19:34:08.456Z,18.08
2022-12-19T19:37:22.578Z,17.60
2022-12-19T19:40:38.610Z,18.08
2022-12-19T19:43:58.549Z,18.57
2022-12-19T19:47:23.396Z,21.33
2022-12-19T19:50:43.371Z,19.08
2022-12-19T19:53:50.451Z,18.67
2022-12-19T19:56:57.580Z,19.48
2022-12-19T20:00:16.095Z,18.33
2022-12-19T20:03:37.200Z,19.00
2022-12-19T20:07:00.361Z,19.40
2022-12-19T20:10:25.136Z,18.25
2022-12-19T20:13:35.159Z,18.95
2022-12-19T20:16:58.355Z,19.57
2022-12-19T20:20:28.326Z,18.30
2022-12-19T20:23:51.213Z,19.05
2022-12-19T20:27:14.290Z,18.77
2022-12-19T20:30:36.227Z,18.73
2022-12-19T20:33:58.195Z,19.37
2022-12-19T20:37:21.291Z,18.80
2022-12-19T20:40:43.144Z,19.23
2022-12-19T20:44:05.141Z,18.25
2022-12-19T20:47:28.251Z,19.60
2022-12-19T20:50:51.111Z,18.13
2022-12-19T20:54:14.505Z,18.37
2022-12-19T20:57:35.134Z,19.50
2022-12-19T21:00:57.151Z,18.65
2022-12-19T21:04:19.253Z,19.77
2022-12-19T21:07:42.294Z,20.27
2022-12-19T21:10:52.136Z,19.70
2022-12-19T21:14:15.133Z,19.20
2022-12-19T21:17:49.293Z,18.98
2022-12-19T21:21:12.139Z,19.55
2022-12-19T21:24:33.223Z,19.43
2022-12-19T21:27:49.239Z,19.17
2022-12-19T21:31:15.152Z,18.80
2022-12-19T21:34:31.263Z,18.85
2022-12-19T21:37:50.262Z,19.30
2022-12-19T21:41:18.909Z,19.93
2022-12-19T21:44:38.083Z,19.13
2022-12-19T21:48:02.174Z,18.77
2022-12-19T21:51:23.200Z,18.83
2022-12-19T21:54:39.201Z,19.67
2022-12-19T21:57:46.059Z,19.87
2022-12-19T22:01:07.901Z,20.33
2022-12-19T22:04:21.301Z,20.50
2022-12-19T22:07:35.868Z,19.90
2022-12-19T22:10:51.989Z,20.15
2022-12-19T22:14:13.193Z,20.80
2022-12-19T22:17:28.970Z,20.87
2022-12-19T22:21:03.936Z,21.70
2022-12-19T22:24:26.761Z,19.52
2022-12-19T22:27:42.076Z,20.02
2022-12-19T22:31:03.021Z,21.90
2022-12-19T22:34:27.025Z,21.13
2022-12-19T22:37:47.957Z,19.67
2022-12-19T22:41:18.907Z,20.30
2022-12-19T22:44:40.841Z,22.27
2022-12-19T22:48:02.879Z,20.57
2022-12-19T22:51:26.885Z,21.17
2022-12-19T22:54:43.070Z,21.45
2022-12-19T22:58:02.863Z,21.13
2022-12-19T23:01:21.806Z,21.13
2022-12-19T23:04:44.812Z,21.67
2022-12-19T23:08:17.756Z,21.50
2022-12-19T23:11:41.920Z,21.45
2022-12-19T23:15:03.878Z,22.13
2022-12-19T23:18:24.802Z,20.60
2022-12-19T23:21:47.980Z,21.97
2022-12-19T23:25:08.788Z,21.50
2022-12-19T23:28:31.952Z,21.65
2022-12-19T23:31:55.783Z,22.17
2022-12-19T23:35:15.851Z,22.10
2022-12-19T23:38:35.771Z,21.90
2022-12-19T23:41:55.926Z,20.40
2022-12-19T23:44:58.880Z,21.35
2022-12-19T23:48:06.019Z,22.45
2022-12-19T23:51:22.507Z,22.15
2022-12-19T23:54:43.394Z,21.73
2022-12-19T23:58:09.360Z,21.53
